Belleville, New York
Current Conditions -  °F | °C
As of 7:56 AM on Thursday 30 Oct 2014 (Local Time) from KART Reporting Station
Broken Clouds Broken Clouds  
Wind Chill: 38°   Ceiling: 3600
Heat Index: 42°   Visibility: 10mi
Dew Point: 32°   Wind: 6mph
Humidity: 67%   Direction: 10°N
Pressure: 30"   Gusts: NA
Location:  43.78°N, 76.12°W
Report Text: KART 301156Z AUTO 01005KT 10SM BKN036 06/00 A3000 RMK AO2 SLP161 T00560000 10089 20056 53021
Loading
Personal Weather Stations






























Interactive Weather Map
Tropical Storm Tracking
New forecast layout! Learn more

10-Day Weather Forecast

Advertisements
Track Severe Weather on mobile